createdAt,value
2019-02-27T00:00:34.142Z,99.90
2019-02-27T00:03:02.925Z,99.90
2019-02-27T00:05:31.654Z,99.90
2019-02-27T00:08:00.432Z,99.90
2019-02-27T00:10:29.215Z,99.90
2019-02-27T00:12:58.008Z,99.90
2019-02-27T00:15:26.823Z,99.90
2019-02-27T00:17:55.804Z,99.90
2019-02-27T00:20:24.667Z,99.90
2019-02-27T00:22:53.400Z,99.90
2019-02-27T00:25:22.154Z,99.90
2019-02-27T00:27:50.957Z,99.90
2019-02-27T00:30:19.729Z,99.90
2019-02-27T00:32:51.014Z,99.90
2019-02-27T00:35:18.993Z,99.90
2019-02-27T00:37:51.857Z,99.90
2019-02-27T00:40:18.217Z,99.90
2019-02-27T00:42:47.024Z,99.90
2019-02-27T00:45:15.788Z,99.90
2019-02-27T00:47:44.520Z,99.90
2019-02-27T00:50:13.280Z,99.90
2019-02-27T00:52:42.348Z,99.90
2019-02-27T00:55:11.144Z,99.90
2019-02-27T00:57:39.887Z,99.90
2019-02-27T01:00:14.713Z,99.90
2019-02-27T01:02:43.526Z,99.90
2019-02-27T01:05:12.449Z,99.90
2019-02-27T01:07:41.332Z,99.90
2019-02-27T01:10:13.087Z,99.90
2019-02-27T01:12:41.939Z,99.90
2019-02-27T01:15:12.139Z,99.90
2019-02-27T01:17:40.918Z,99.90
2019-02-27T01:20:12.245Z,99.90
2019-02-27T01:22:41.030Z,99.90
2019-02-27T01:25:09.885Z,99.90
2019-02-27T01:27:38.754Z,99.90
2019-02-27T01:30:11.001Z,99.90
2019-02-27T01:32:39.752Z,99.90
2019-02-27T01:35:10.185Z,99.90
2019-02-27T01:37:39.023Z,99.90
2019-02-27T01:40:17.141Z,99.90
2019-02-27T01:42:44.238Z,99.90
2019-02-27T01:45:15.289Z,99.90
2019-02-27T01:47:44.072Z,99.90
2019-02-27T01:50:24.530Z,99.90
2019-02-27T01:52:53.305Z,99.90
2019-02-27T01:55:22.664Z,99.90
2019-02-27T01:57:51.467Z,99.90
2019-02-27T02:00:23.013Z,99.90
2019-02-27T02:02:50.878Z,99.90
2019-02-27T02:05:19.904Z,99.90
2019-02-27T02:07:48.924Z,99.90
2019-02-27T02:10:18.008Z,99.90
2019-02-27T02:12:52.881Z,99.90
2019-02-27T02:15:27.917Z,99.90
2019-02-27T02:18:11.878Z,99.90
2019-02-27T02:20:50.941Z,99.90
2019-02-27T02:23:25.208Z,99.90
2019-02-27T02:26:01.352Z,99.90
2019-02-27T02:29:04.738Z,99.90
2019-02-27T02:31:57.658Z,99.90
2019-02-27T02:34:41.305Z,99.90
2019-02-27T02:37:18.886Z,99.90
2019-02-27T02:40:07.001Z,99.90
2019-02-27T02:43:03.132Z,99.90
2019-02-27T02:45:49.438Z,99.90
2019-02-27T02:48:31.020Z,99.90
2019-02-27T02:51:28.980Z,99.90
2019-02-27T02:54:05.261Z,99.90
2019-02-27T02:56:42.282Z,99.90
2019-02-27T02:59:46.958Z,99.90
2019-02-27T03:02:36.720Z,99.90
2019-02-27T03:05:37.040Z,99.90
2019-02-27T03:08:11.670Z,99.90
2019-02-27T03:10:52.334Z,99.90
2019-02-27T03:13:47.955Z,99.90
2019-02-27T03:16:41.121Z,99.90
2019-02-27T03:19:26.062Z,99.90
2019-02-27T03:22:15.620Z,99.90
2019-02-27T03:24:53.223Z,99.90
2019-02-27T03:27:30.932Z,99.90
2019-02-27T03:30:17.487Z,99.90
2019-02-27T03:33:23.063Z,99.90
2019-02-27T03:36:18.129Z,99.90
2019-02-27T03:39:07.314Z,99.90
2019-02-27T03:41:41.827Z,99.90
2019-02-27T03:44:13.730Z,99.90
2019-02-27T03:46:51.694Z,99.90
2019-02-27T03:49:45.932Z,99.90
2019-02-27T03:52:36.327Z,99.90
2019-02-27T03:55:32.859Z,99.90
2019-02-27T03:58:34.818Z,99.90
2019-02-27T04:01:09.374Z,99.90
2019-02-27T04:03:57.738Z,99.90
2019-02-27T04:06:46.081Z,99.90
2019-02-27T04:09:18.551Z,99.90
2019-02-27T04:11:45.305Z,99.90
2019-02-27T04:14:28.232Z,99.90
2019-02-27T04:16:57.090Z,99.90
2019-02-27T04:19:25.863Z,99.90
2019-02-27T04:22:00.455Z,99.90
2019-02-27T04:24:25.222Z,99.90
2019-02-27T04:26:54.084Z,99.90
2019-02-27T04:29:22.869Z,99.90
2019-02-27T04:31:51.699Z,99.90
2019-02-27T04:34:20.447Z,99.90
2019-02-27T04:36:49.206Z,99.90
2019-02-27T04:39:17.977Z,99.90
2019-02-27T04:41:46.758Z,99.90
2019-02-27T04:44:15.558Z,99.90
2019-02-27T04:46:44.321Z,99.90
2019-02-27T04:49:13.360Z,99.90
2019-02-27T04:51:42.148Z,99.90
2019-02-27T04:54:10.990Z,99.90
2019-02-27T04:56:39.791Z,99.90
2019-02-27T04:59:08.576Z,99.90
2019-02-27T05:01:37.462Z,99.90
2019-02-27T05:04:06.344Z,99.90
2019-02-27T05:06:35.076Z,99.90
2019-02-27T05:09:05.804Z,99.90
2019-02-27T05:11:34.561Z,99.90
2019-02-27T05:14:03.408Z,99.90
2019-02-27T05:16:32.190Z,99.90
2019-02-27T05:19:03.886Z,99.90
2019-02-27T05:21:31.452Z,99.90
2019-02-27T05:24:00.200Z,99.90
2019-02-27T05:26:28.978Z,99.90
2019-02-27T05:28:57.817Z,99.90
2019-02-27T05:31:26.558Z,99.90
2019-02-27T05:33:55.317Z,99.90
2019-02-27T05:36:24.077Z,99.90
2019-02-27T05:38:52.821Z,99.90
2019-02-27T05:41:21.657Z,99.90
2019-02-27T05:43:50.705Z,99.90
2019-02-27T05:46:19.484Z,99.90
2019-02-27T05:48:50.798Z,99.90
2019-02-27T05:51:18.734Z,99.90
2019-02-27T05:53:47.610Z,99.90
2019-02-27T05:56:16.543Z,99.90
2019-02-27T05:58:45.340Z,99.90
2019-02-27T06:01:14.088Z,99.90
2019-02-27T06:03:42.841Z,99.90
2019-02-27T06:06:12.376Z,99.90
2019-02-27T06:08:41.254Z,99.90
2019-02-27T06:11:10.001Z,99.90
2019-02-27T06:13:38.760Z,99.90
2019-02-27T06:16:09.156Z,99.90
2019-02-27T06:18:38.112Z,99.90
2019-02-27T06:21:06.900Z,99.90
2019-02-27T06:23:37.836Z,99.90
2019-02-27T06:26:06.214Z,99.90
2019-02-27T06:28:35.047Z,99.90
2019-02-27T06:31:03.882Z,99.90
2019-02-27T06:33:32.626Z,99.90
2019-02-27T06:36:01.449Z,99.90
2019-02-27T06:38:30.264Z,99.90
2019-02-27T06:40:59.464Z,99.90
2019-02-27T06:43:28.327Z,99.90
2019-02-27T06:45:57.209Z,99.90
2019-02-27T06:48:26.064Z,99.90
2019-02-27T06:50:54.804Z,99.90
2019-02-27T06:53:23.603Z,99.90
2019-02-27T06:55:52.377Z,99.90
2019-02-27T06:58:21.147Z,99.90
2019-02-27T07:00:49.898Z,99.90
2019-02-27T07:03:18.690Z,99.90
2019-02-27T07:05:48.293Z,99.90
2019-02-27T07:08:17.629Z,99.90
2019-02-27T07:10:46.368Z,99.90
2019-02-27T07:13:15.232Z,99.90
2019-02-27T07:15:47.909Z,99.90
2019-02-27T07:18:14.584Z,99.90
2019-02-27T07:20:43.354Z,99.90
2019-02-27T07:23:12.110Z,99.90
2019-02-27T07:25:42.170Z,99.90
2019-02-27T07:28:11.370Z,99.90
2019-02-27T07:30:42.476Z,99.90
2019-02-27T07:33:10.748Z,97.70
2019-02-27T07:35:39.492Z,93.90
2019-02-27T07:38:08.248Z,76.10
2019-02-27T07:40:37.023Z,45.80
2019-02-27T07:43:06.406Z,42.80
2019-02-27T07:45:35.211Z,27.30
2019-02-27T07:48:04.060Z,13.70
2019-02-27T07:50:32.854Z,1.00
2019-02-27T07:53:01.622Z,1.00
2019-02-27T07:55:30.358Z,1.00
2019-02-27T07:57:59.310Z,1.00
2019-02-27T08:00:28.100Z,1.00
2019-02-27T08:02:57.226Z,1.00
2019-02-27T08:05:44.583Z,1.00
2019-02-27T08:08:13.440Z,1.00
2019-02-27T08:10:42.270Z,1.00
2019-02-27T08:13:11.019Z,1.00
2019-02-27T08:15:39.858Z,99.90
2019-02-27T08:18:08.749Z,1.00
2019-02-27T08:20:37.629Z,99.90
2019-02-27T08:23:06.994Z,1.00
2019-02-27T08:25:38.496Z,1.00
2019-02-27T08:28:07.256Z,1.00
2019-02-27T08:30:36.027Z,99.90
2019-02-27T08:33:08.148Z,99.90
2019-02-27T08:35:35.319Z,14.40
2019-02-27T08:38:04.097Z,1.00
2019-02-27T08:40:32.858Z,1.00
2019-02-27T08:43:01.660Z,1.00
2019-02-27T08:45:30.139Z,99.90
2019-02-27T08:47:58.889Z,99.90
2019-02-27T08:50:29.204Z,99.90
2019-02-27T08:52:58.152Z,99.90
2019-02-27T08:55:27.001Z,99.90
2019-02-27T08:57:57.024Z,99.90
2019-02-27T09:00:31.096Z,99.90
2019-02-27T09:03:02.375Z,75.60
2019-02-27T09:05:30.171Z,62.40
2019-02-27T09:07:58.734Z,31.90
2019-02-27T09:10:30.397Z,21.00
2019-02-27T09:15:27.733Z,3.90
2019-02-27T09:17:59.101Z,1.00
2019-02-27T09:20:26.998Z,1.00
2019-02-27T09:22:55.913Z,1.00
2019-02-27T09:25:24.938Z,1.00
2019-02-27T09:27:53.670Z,1.00
2019-02-27T09:30:29.467Z,1.00
2019-02-27T09:32:56.910Z,1.00
2019-02-27T09:35:25.457Z,1.00
2019-02-27T09:37:53.910Z,1.00
2019-02-27T09:40:24.391Z,1.00
2019-02-27T09:42:53.746Z,1.00
2019-02-27T09:45:30.618Z,1.00
2019-02-27T09:48:00.860Z,1.00
2019-02-27T09:50:34.517Z,1.00
2019-02-27T09:53:04.209Z,1.00
2019-02-27T09:55:32.911Z,1.00
2019-02-27T09:58:01.692Z,1.00
2019-02-27T10:00:44.841Z,1.00
2019-02-27T10:03:13.304Z,1.00
2019-02-27T10:05:41.810Z,1.00
2019-02-27T10:08:11.645Z,1.00
2019-02-27T10:10:44.860Z,1.00
2019-02-27T10:13:10.524Z,1.00
2019-02-27T10:15:39.274Z,1.00
2019-02-27T10:18:07.837Z,1.00
2019-02-27T10:20:37.309Z,1.00
2019-02-27T10:23:06.621Z,1.00
2019-02-27T10:25:35.220Z,1.00
2019-02-27T10:28:04.816Z,1.00
2019-02-27T10:30:33.438Z,1.00
2019-02-27T10:33:03.369Z,1.00
2019-02-27T10:35:34.548Z,1.00
2019-02-27T10:38:02.660Z,1.00
2019-02-27T10:40:31.145Z,1.00
2019-02-27T10:42:59.742Z,1.00
2019-02-27T10:45:28.464Z,1.00
2019-02-27T10:47:56.944Z,1.00
2019-02-27T10:50:25.497Z,1.00
2019-02-27T10:52:53.992Z,1.00
2019-02-27T10:55:23.143Z,1.00
2019-02-27T10:57:51.739Z,1.00
2019-02-27T11:00:28.986Z,1.00
2019-02-27T11:02:57.828Z,1.00
2019-02-27T11:05:28.079Z,1.00
2019-02-27T11:07:56.603Z,1.00
2019-02-27T11:10:25.354Z,1.00
2019-02-27T11:12:53.914Z,1.00
2019-02-27T11:15:23.158Z,1.00
2019-02-27T11:17:51.684Z,1.00
2019-02-27T11:20:21.772Z,1.00
2019-02-27T11:22:50.529Z,1.00
2019-02-27T11:25:22.555Z,1.00
2019-02-27T11:27:51.797Z,1.00
2019-02-27T11:30:35.943Z,1.00
2019-02-27T11:33:01.989Z,1.00
2019-02-27T11:35:30.566Z,1.00
2019-02-27T11:37:59.135Z,1.00
2019-02-27T11:40:28.082Z,1.00
2019-02-27T11:42:56.747Z,1.00
2019-02-27T11:45:25.556Z,1.00
2019-02-27T11:47:54.067Z,1.00
2019-02-27T11:50:22.663Z,1.00
2019-02-27T11:52:51.466Z,1.00
2019-02-27T11:55:21.376Z,1.00
2019-02-27T11:57:50.040Z,1.00
2019-02-27T12:00:23.833Z,1.00
2019-02-27T12:02:52.463Z,1.00
2019-02-27T12:05:20.925Z,1.00
2019-02-27T12:07:51.293Z,1.00
2019-02-27T12:10:30.996Z,1.00
2019-02-27T12:13:01.223Z,1.00
2019-02-27T12:15:30.155Z,1.00
2019-02-27T12:18:01.478Z,1.00
2019-02-27T12:20:28.977Z,1.00
2019-02-27T12:22:57.526Z,1.00
2019-02-27T12:25:29.028Z,1.00
2019-02-27T12:27:56.752Z,1.00
2019-02-27T12:30:27.796Z,1.00
2019-02-27T12:32:57.048Z,1.00
2019-02-27T12:35:28.248Z,1.00
2019-02-27T12:37:56.762Z,1.00
2019-02-27T12:40:25.434Z,1.00
2019-02-27T12:42:54.256Z,1.00
2019-02-27T12:45:29.577Z,1.00
2019-02-27T12:47:57.895Z,1.00
2019-02-27T12:50:31.096Z,1.00
2019-02-27T12:52:59.014Z,1.00
2019-02-27T12:55:27.536Z,1.00
2019-02-27T12:57:56.040Z,1.00
2019-02-27T13:00:31.935Z,1.00
2019-02-27T13:03:00.500Z,1.00
2019-02-27T13:05:29.435Z,1.00
2019-02-27T13:07:58.037Z,1.00
2019-02-27T13:10:33.159Z,1.00
2019-02-27T13:12:59.563Z,1.00
2019-02-27T13:15:29.949Z,1.00
2019-02-27T13:17:58.616Z,1.00
2019-02-27T13:20:34.428Z,1.00
2019-02-27T13:23:05.137Z,1.00
2019-02-27T13:25:33.898Z,1.00
2019-02-27T13:28:02.376Z,1.00
2019-02-27T13:30:30.944Z,1.00
2019-02-27T13:33:01.244Z,1.00
2019-02-27T13:35:29.624Z,1.00
2019-02-27T13:37:58.123Z,1.00
2019-02-27T13:40:35.155Z,1.00
2019-02-27T13:43:01.206Z,1.00
2019-02-27T13:45:33.270Z,1.00
2019-02-27T13:48:04.978Z,1.00
2019-02-27T13:50:32.092Z,1.00
2019-02-27T13:53:00.591Z,1.00
2019-02-27T13:55:29.099Z,1.00
2019-02-27T13:57:59.769Z,1.00
2019-02-27T14:00:31.546Z,1.00
2019-02-27T14:03:00.000Z,1.00
2019-02-27T14:05:29.554Z,1.00
2019-02-27T14:07:58.769Z,1.00
2019-02-27T14:10:32.277Z,1.00
2019-02-27T14:13:00.938Z,1.00
2019-02-27T14:15:31.357Z,1.00
2019-02-27T14:18:01.303Z,1.00
2019-02-27T14:20:29.965Z,1.00
2019-02-27T14:22:58.428Z,1.00
2019-02-27T14:25:33.651Z,1.00
2019-02-27T14:28:02.183Z,1.00
2019-02-27T14:30:39.097Z,1.00
2019-02-27T14:33:07.663Z,1.00
2019-02-27T14:35:36.584Z,1.00
2019-02-27T14:38:05.443Z,1.00
2019-02-27T14:40:37.653Z,1.00
2019-02-27T14:43:04.719Z,1.00
2019-02-27T14:45:33.494Z,1.00
2019-02-27T14:48:01.976Z,1.00
2019-02-27T14:50:33.487Z,1.00
2019-02-27T14:53:01.064Z,1.00
2019-02-27T14:55:29.566Z,1.00
2019-02-27T14:57:58.049Z,1.00
2019-02-27T15:00:31.037Z,1.00
2019-02-27T15:02:59.539Z,1.00
2019-02-27T15:05:28.035Z,1.00
2019-02-27T15:07:56.570Z,1.00
2019-02-27T15:10:25.392Z,1.00
2019-02-27T15:12:55.532Z,1.00
2019-02-27T15:15:28.836Z,1.00
2019-02-27T15:17:57.602Z,1.00
2019-02-27T15:20:27.587Z,1.00
2019-02-27T15:22:56.508Z,1.00
2019-02-27T15:25:27.180Z,1.00
2019-02-27T15:27:58.377Z,1.00
2019-02-27T15:30:27.557Z,1.00
2019-02-27T15:32:56.051Z,1.00
2019-02-27T15:35:24.514Z,1.00
2019-02-27T15:37:53.119Z,1.00
2019-02-27T15:40:28.560Z,1.00
2019-02-27T15:42:54.410Z,1.00
2019-02-27T15:45:24.134Z,1.00
2019-02-27T15:47:52.788Z,1.00
2019-02-27T15:50:37.517Z,1.00
2019-02-27T15:53:06.294Z,1.00
2019-02-27T15:55:35.361Z,1.00
2019-02-27T15:58:04.225Z,1.00
2019-02-27T16:00:32.684Z,1.00
2019-02-27T16:03:01.156Z,1.00
2019-02-27T16:05:31.505Z,1.00
2019-02-27T16:08:00.385Z,1.00
2019-02-27T16:10:29.313Z,1.00
2019-02-27T16:13:01.047Z,1.00
2019-02-27T16:15:28.109Z,1.00
2019-02-27T16:17:56.665Z,1.00
2019-02-27T16:20:27.095Z,1.00
2019-02-27T16:22:55.720Z,1.00
2019-02-27T16:25:28.206Z,1.00
2019-02-27T16:27:56.693Z,1.00
2019-02-27T16:30:32.559Z,1.00
2019-02-27T16:33:00.134Z,1.00
2019-02-27T16:35:28.694Z,1.00
2019-02-27T16:37:57.965Z,1.00
2019-02-27T16:40:30.420Z,1.00
2019-02-27T16:42:58.884Z,1.00
2019-02-27T16:45:33.566Z,1.00
2019-02-27T16:48:00.657Z,1.00
2019-02-27T16:50:29.192Z,1.00
2019-02-27T16:52:57.958Z,1.00
2019-02-27T16:55:27.553Z,1.00
2019-02-27T16:57:57.682Z,1.00
2019-02-27T17:00:31.227Z,1.00
2019-02-27T17:02:59.868Z,1.00
2019-02-27T17:05:28.404Z,1.00
2019-02-27T17:08:00.278Z,1.00
2019-02-27T17:10:33.357Z,1.00
2019-02-27T17:13:02.100Z,1.00
2019-02-27T17:15:34.578Z,1.00
2019-02-27T17:18:01.636Z,1.00
2019-02-27T17:20:30.454Z,1.00
2019-02-27T17:22:59.206Z,1.00
2019-02-27T17:25:29.981Z,1.00
2019-02-27T17:27:58.588Z,1.00
2019-02-27T17:30:37.817Z,1.00
2019-02-27T17:33:05.690Z,1.00
2019-02-27T17:35:34.459Z,1.00
2019-02-27T17:38:03.345Z,1.00
2019-02-27T17:40:36.467Z,1.00
2019-02-27T17:43:02.580Z,1.00
2019-02-27T17:45:31.360Z,1.00
2019-02-27T17:48:00.167Z,1.00
2019-02-27T17:50:31.656Z,1.00
2019-02-27T17:52:59.474Z,1.00
2019-02-27T17:55:28.304Z,1.00
2019-02-27T17:57:58.512Z,1.00
2019-02-27T18:00:30.124Z,1.00
2019-02-27T18:02:58.873Z,1.00
2019-02-27T18:05:28.133Z,1.00
2019-02-27T18:07:57.091Z,1.00
2019-02-27T18:10:25.865Z,1.00
2019-02-27T18:12:54.781Z,1.00
2019-02-27T18:15:24.509Z,1.00
2019-02-27T18:17:53.510Z,1.00
2019-02-27T18:20:25.557Z,1.00
2019-02-27T18:22:52.888Z,1.00
2019-02-27T18:25:22.866Z,1.00
2019-02-27T18:27:51.640Z,1.00
2019-02-27T18:30:24.563Z,1.00
2019-02-27T18:32:53.425Z,1.00
2019-02-27T18:35:22.212Z,1.00
2019-02-27T18:37:54.371Z,1.00
2019-02-27T18:40:21.829Z,1.00
2019-02-27T18:42:55.302Z,1.00
2019-02-27T18:45:22.857Z,1.00
2019-02-27T18:47:51.716Z,1.00
2019-02-27T18:50:20.548Z,1.00
2019-02-27T18:52:49.895Z,1.00
2019-02-27T18:55:18.645Z,1.00
2019-02-27T18:57:47.664Z,1.00
2019-02-27T19:00:24.548Z,1.00
2019-02-27T19:02:58.672Z,1.00
2019-02-27T19:05:27.706Z,1.00
2019-02-27T19:07:56.505Z,1.00
2019-02-27T19:10:25.475Z,1.00
2019-02-27T19:12:54.338Z,1.00
2019-02-27T19:15:25.235Z,1.00
2019-02-27T19:17:54.302Z,1.00
2019-02-27T19:20:38.086Z,1.00
2019-02-27T19:23:09.741Z,1.00
2019-02-27T19:25:38.632Z,1.00
2019-02-27T19:28:07.524Z,1.00
2019-02-27T19:30:38.702Z,1.00
2019-02-27T19:33:07.254Z,1.00
2019-02-27T19:35:36.118Z,1.00
2019-02-27T19:38:04.906Z,1.00
2019-02-27T19:40:33.733Z,1.00
2019-02-27T19:43:04.054Z,1.00
2019-02-27T19:45:35.985Z,1.00
2019-02-27T19:48:03.371Z,1.00
2019-02-27T19:50:32.125Z,1.00
2019-02-27T19:53:05.180Z,1.00
2019-02-27T19:55:31.372Z,1.00
2019-02-27T19:58:00.240Z,1.00
2019-02-27T20:00:35.039Z,1.00
2019-02-27T20:03:01.851Z,1.00
2019-02-27T20:05:30.762Z,1.00
2019-02-27T20:07:59.811Z,1.00
2019-02-27T20:10:30.912Z,1.00
2019-02-27T20:12:59.251Z,1.00
2019-02-27T20:15:28.230Z,1.00
2019-02-27T20:17:57.184Z,1.00
2019-02-27T20:20:26.113Z,1.00
2019-02-27T20:22:55.215Z,1.00
2019-02-27T20:25:26.002Z,1.00
2019-02-27T20:27:57.846Z,1.00
2019-02-27T20:30:25.945Z,1.00
2019-02-27T20:32:54.878Z,1.00
2019-02-27T20:35:23.642Z,1.00
2019-02-27T20:37:52.508Z,1.00
2019-02-27T20:40:21.390Z,1.00
2019-02-27T20:42:54.697Z,1.00
2019-02-27T20:45:21.947Z,1.00
2019-02-27T20:47:57.620Z,1.00
2019-02-27T20:50:40.046Z,1.00
2019-02-27T20:53:10.968Z,1.00
2019-02-27T20:55:39.737Z,1.00
2019-02-27T20:58:08.531Z,1.00
2019-02-27T21:00:37.376Z,1.00
2019-02-27T21:03:06.136Z,1.00
2019-02-27T21:05:34.888Z,1.00
2019-02-27T21:08:04.018Z,1.00
2019-02-27T21:10:33.381Z,1.00
2019-02-27T21:13:02.145Z,1.00
2019-02-27T21:15:32.585Z,1.00
2019-02-27T21:18:01.635Z,1.00
2019-02-27T21:20:30.478Z,1.00
2019-02-27T21:23:00.248Z,1.00
2019-02-27T21:25:30.101Z,1.00
2019-02-27T21:27:58.876Z,1.00
2019-02-27T21:30:27.754Z,1.00
2019-02-27T21:32:56.747Z,1.00
2019-02-27T21:35:28.724Z,1.00
2019-02-27T21:37:56.056Z,1.00
2019-02-27T21:40:24.872Z,1.00
2019-02-27T21:42:53.726Z,1.00
2019-02-27T21:45:23.395Z,1.00
2019-02-27T21:47:52.917Z,1.00
2019-02-27T21:50:27.516Z,1.00
2019-02-27T21:52:56.310Z,1.00
2019-02-27T21:55:25.214Z,1.00
2019-02-27T21:57:54.244Z,1.00
2019-02-27T22:00:28.072Z,1.00
2019-02-27T22:02:57.743Z,1.00
2019-02-27T22:05:26.548Z,1.00
2019-02-27T22:07:55.445Z,1.00
2019-02-27T22:10:24.194Z,1.00
2019-02-27T22:12:53.063Z,1.00
2019-02-27T22:15:30.232Z,1.00
2019-02-27T22:17:59.018Z,1.00
2019-02-27T22:20:29.437Z,1.00
2019-02-27T22:22:58.465Z,1.00
2019-02-27T22:25:31.024Z,1.00
2019-02-27T22:27:58.445Z,1.00
2019-02-27T22:30:27.377Z,1.00
2019-02-27T22:32:56.139Z,1.00
2019-02-27T22:35:24.917Z,1.00
2019-02-27T22:37:53.822Z,1.00
2019-02-27T22:40:23.610Z,1.00
2019-02-27T22:42:52.414Z,1.00
2019-02-27T22:45:21.465Z,1.00
2019-02-27T22:47:54.002Z,1.00
2019-02-27T22:50:21.653Z,1.00
2019-02-27T22:52:54.259Z,1.00
2019-02-27T22:55:21.061Z,1.00
2019-02-27T22:57:49.855Z,1.00
2019-02-27T23:00:44.127Z,1.00
2019-02-27T23:03:12.930Z,1.00
2019-02-27T23:05:41.697Z,1.00
2019-02-27T23:08:10.474Z,1.00
2019-02-27T23:10:39.239Z,1.00
2019-02-27T23:13:12.392Z,1.00
2019-02-27T23:15:40.033Z,1.00
2019-02-27T23:18:08.874Z,1.00
2019-02-27T23:20:37.649Z,1.00
2019-02-27T23:23:06.447Z,1.00
2019-02-27T23:25:35.200Z,1.00
2019-02-27T23:28:04.031Z,1.00
2019-02-27T23:30:32.776Z,1.00
2019-02-27T23:33:02.237Z,1.00
2019-02-27T23:35:31.712Z,1.00
2019-02-27T23:38:03.227Z,1.00
2019-02-27T23:40:31.046Z,1.00
2019-02-27T23:43:03.404Z,1.00
2019-02-27T23:45:30.265Z,1.00
2019-02-27T23:47:59.247Z,1.00
2019-02-27T23:50:29.536Z,1.00
2019-02-27T23:52:58.316Z,1.00
2019-02-27T23:55:27.052Z,1.00
2019-02-27T23:57:57.806Z,1.00
